Val-d'Or Airport
CYVO : now visible

Airfield :











YOU CAN JOIN US ON...

 
LOGIN :

Register | Disclaimer

   EN    FR    IT 

 









Legend :    VFR   Marginal VFR   IFR   Intensive IFR   Very Intensive IFR
Visi :
Ceiling :
>= 8 km
>= 3000ft
5 to 8 km
1000 to 3000 ft
1500m to 5 km
500 to 1000 ft
800 to 1500m
200 to 500 ft
< 800m
< 200 ft
Symbols :   Thunderstorms  Fog  Heavy snow  Heavy precipitations  Wind > 20 kt







- Airport Elevation : 1107 ft
- IATA code : YVO


CYVO - Val-d'Or

CURRENT METAR :
  • 261500Z 04006KT 10SM -SHRA OVC055 05/04 A2959 RMK SC8 CVCTV CLD EMBD SLP036

EXPIRED METARs :
  • 261428Z 05005KT 6SM -SHRA BR OVC055 05/04 A2961 RMK SC8 CVCTV CLD EMBD SLP041
  • 261400Z 11004KT 15SM -SHRA OVC055 05/04 A2962 RMK SC8 CVCTV CLD EMBD SLP046
  • 261300Z 13006KT 15SM -RA OVC055 05/04 A2965 RMK SC8 SLP053

TAF TAF CYVO
Valid from the 26 at 12:00 until the 27 at 00:00 UTC


261142Z 2612/2624 VRB03KT P6SM OVC080
TEMPO 2612/2613 5SM -RA BR BKN020 OVC040
FM261300 07008KT P6SM -RA OVC030
TEMPO 2613/2620 2SM -RA BR OVC007
FM262000 06010KT 3SM -RA BR OVC010
TEMPO 2620/2624 11/2SM -RA BR OVC004 RMK NXT FCST BY 261800Z
CZUL FIR / North America



MET'MAP, your aeronautical weather chart ! - Copyright ORBIFLY December 2007 - Disclaimer

ORBIFLY MET'MAP TEAM :

Programming & Development : Alexandra Zaïnal
Concept & Development : Baudouin d'Aumeries
Co-Development & Prog : Marc-Olivier Méhu
Technical & hardware support : Manuel Goepfert

Contact : metmap@orbifly.com




SOURCES & CREDITS :

   NOAA       Earth
Advisory